createdAt,value
2019-02-24T00:02:01.970Z,10.50
2019-02-24T00:04:30.052Z,10.70
2019-02-24T00:06:58.211Z,9.73
2019-02-24T00:09:26.260Z,10.07
2019-02-24T00:11:54.322Z,9.90
2019-02-24T00:14:22.266Z,9.87
2019-02-24T00:16:50.388Z,9.13
2019-02-24T00:19:18.370Z,11.00
2019-02-24T00:21:46.376Z,11.30
2019-02-24T00:24:14.397Z,10.27
2019-02-24T00:26:42.580Z,10.30
2019-02-24T00:29:10.599Z,9.80
2019-02-24T00:31:38.632Z,9.90
2019-02-24T00:34:06.614Z,8.67
2019-02-24T00:36:34.531Z,11.60
2019-02-24T00:39:02.683Z,10.17
2019-02-24T00:41:30.666Z,10.17
2019-02-24T00:43:58.771Z,10.17
2019-02-24T00:46:26.739Z,9.33
2019-02-24T00:48:54.835Z,10.53
2019-02-24T00:51:22.867Z,8.70
2019-02-24T00:53:51.869Z,9.43
2019-02-24T00:56:19.895Z,11.30
2019-02-24T00:58:47.839Z,11.27
2019-02-24T01:01:18.671Z,11.57
2019-02-24T01:03:46.640Z,9.57
2019-02-24T01:06:14.888Z,9.10
2019-02-24T01:08:42.815Z,9.47
2019-02-24T01:11:10.844Z,11.03
2019-02-24T01:13:39.437Z,9.40
2019-02-24T01:16:07.528Z,8.77
2019-02-24T01:18:35.545Z,7.80
2019-02-24T01:21:03.707Z,8.57
2019-02-24T01:23:31.787Z,9.37
2019-02-24T01:25:59.815Z,8.83
2019-02-24T01:28:27.835Z,9.20
2019-02-24T01:30:55.830Z,9.40
2019-02-24T01:33:23.842Z,11.53
2019-02-24T01:35:51.800Z,10.53
2019-02-24T01:38:19.727Z,9.93
2019-02-24T01:40:47.659Z,10.43
2019-02-24T01:43:15.643Z,10.20
2019-02-24T01:45:43.679Z,9.60
2019-02-24T01:48:11.680Z,10.83
2019-02-24T01:50:39.755Z,14.37
2019-02-24T01:53:07.795Z,13.17
2019-02-24T01:55:35.835Z,11.43
2019-02-24T01:58:03.919Z,12.00
2019-02-24T02:00:31.848Z,13.83
2019-02-24T02:02:59.869Z,12.23
2019-02-24T02:05:27.873Z,13.00
2019-02-24T02:07:55.982Z,13.63
2019-02-24T02:10:24.095Z,13.83
2019-02-24T02:12:52.043Z,14.50
2019-02-24T02:15:20.029Z,15.93
2019-02-24T02:17:48.032Z,12.13
2019-02-24T02:20:16.195Z,14.47
2019-02-24T02:22:44.220Z,13.60
2019-02-24T02:25:12.253Z,16.53
2019-02-24T02:27:40.447Z,14.53
2019-02-24T02:30:08.948Z,11.83
2019-02-24T02:32:36.986Z,14.20
2019-02-24T02:35:05.484Z,12.63
2019-02-24T02:37:33.480Z,13.93
2019-02-24T02:40:01.564Z,12.53
2019-02-24T02:42:29.635Z,12.83
2019-02-24T02:44:57.683Z,12.27
2019-02-24T02:47:25.668Z,12.20
2019-02-24T02:49:53.671Z,12.73
2019-02-24T02:52:21.736Z,11.03
2019-02-24T02:54:49.779Z,12.03
2019-02-24T02:57:17.758Z,13.10
2019-02-24T02:59:45.837Z,13.13
2019-02-24T03:02:23.795Z,12.53
2019-02-24T03:04:43.568Z,12.40
2019-02-24T03:07:20.624Z,11.97
2019-02-24T03:09:48.660Z,12.27
2019-02-24T03:12:16.683Z,11.53
2019-02-24T03:14:44.710Z,11.80
2019-02-24T03:17:12.839Z,12.47
2019-02-24T03:19:40.892Z,11.73
2019-02-24T03:22:09.063Z,14.07
2019-02-24T03:24:37.088Z,13.50
2019-02-24T03:27:05.072Z,14.97
2019-02-24T03:29:33.134Z,11.27
2019-02-24T03:32:01.209Z,15.27
2019-02-24T03:34:29.242Z,13.03
2019-02-24T03:36:57.269Z,13.83
2019-02-24T03:39:25.328Z,12.93
2019-02-24T03:41:53.304Z,12.97
2019-02-24T03:44:21.275Z,15.10
2019-02-24T03:46:49.350Z,13.87
2019-02-24T03:49:17.796Z,14.53
2019-02-24T03:51:45.886Z,13.70
2019-02-24T03:54:13.847Z,15.87
2019-02-24T03:56:41.905Z,16.57
2019-02-24T03:59:15.181Z,14.33
2019-02-24T04:01:40.133Z,15.20
2019-02-24T04:04:08.276Z,14.83
2019-02-24T04:06:36.298Z,15.77
2019-02-24T04:09:04.749Z,15.07
2019-02-24T04:11:32.784Z,14.53
2019-02-24T04:14:00.813Z,16.27
2019-02-24T04:16:28.834Z,16.90
2019-02-24T04:18:56.852Z,16.83
2019-02-24T04:21:24.992Z,15.97
2019-02-24T04:23:53.037Z,17.10
2019-02-24T04:26:21.128Z,19.43
2019-02-24T04:28:49.187Z,17.57
2019-02-24T04:31:17.363Z,16.77
2019-02-24T04:33:45.388Z,17.30
2019-02-24T04:36:13.471Z,17.33
2019-02-24T04:38:41.532Z,18.03
2019-02-24T04:41:09.583Z,17.90
2019-02-24T04:43:37.650Z,19.70
2019-02-24T04:46:05.720Z,19.27
2019-02-24T04:48:33.768Z,17.57
2019-02-24T04:51:01.852Z,19.33
2019-02-24T04:53:29.880Z,18.27
2019-02-24T04:55:59.925Z,20.07
2019-02-24T04:58:28.059Z,20.10
2019-02-24T05:00:56.331Z,20.60
2019-02-24T05:03:24.440Z,19.40
2019-02-24T05:05:52.511Z,21.80
2019-02-24T05:08:20.438Z,19.13
2019-02-24T05:10:48.559Z,21.97
2019-02-24T05:13:16.564Z,20.83
2019-02-24T05:15:44.611Z,22.87
2019-02-24T05:18:12.647Z,22.13
2019-02-24T05:20:40.578Z,20.60
2019-02-24T05:23:08.555Z,22.10
2019-02-24T05:25:36.619Z,18.93
2019-02-24T05:28:04.862Z,22.00
2019-02-24T05:30:32.900Z,23.70
2019-02-24T05:33:00.954Z,19.50
2019-02-24T05:35:29.035Z,24.63
2019-02-24T05:37:57.039Z,23.17
2019-02-24T05:40:25.003Z,21.90
2019-02-24T05:42:52.932Z,22.70
2019-02-24T05:45:20.956Z,27.20
2019-02-24T05:47:48.937Z,22.30
2019-02-24T05:50:19.287Z,24.37
2019-02-24T05:52:47.653Z,23.40
2019-02-24T05:55:15.720Z,24.63
2019-02-24T05:57:43.756Z,22.90
2019-02-24T06:00:11.868Z,22.60
2019-02-24T06:02:39.839Z,25.20
2019-02-24T06:05:07.910Z,23.13
2019-02-24T06:07:35.951Z,22.67
2019-02-24T06:10:03.991Z,23.63
2019-02-24T06:12:32.026Z,22.20
2019-02-24T06:15:00.132Z,25.40
2019-02-24T06:17:28.635Z,24.57
2019-02-24T06:19:56.688Z,24.70
2019-02-24T06:22:24.818Z,23.37
2019-02-24T06:24:52.834Z,26.27
2019-02-24T06:27:20.828Z,23.40
2019-02-24T06:29:48.906Z,23.77
2019-02-24T06:32:17.002Z,24.73
2019-02-24T06:34:45.201Z,26.80
2019-02-24T06:37:13.372Z,25.87
2019-02-24T06:39:41.407Z,25.27
2019-02-24T06:42:09.524Z,27.33
2019-02-24T06:44:37.580Z,26.97
2019-02-24T06:47:05.594Z,28.03
2019-02-24T06:49:33.564Z,29.67
2019-02-24T06:52:01.499Z,29.37
2019-02-24T06:54:29.592Z,27.67
2019-02-24T06:56:57.576Z,26.20
2019-02-24T06:59:25.647Z,27.97
2019-02-24T07:01:53.888Z,29.70
2019-02-24T07:04:21.890Z,28.83
2019-02-24T07:06:49.972Z,24.00
2019-02-24T07:09:19.197Z,29.97
2019-02-24T07:11:47.335Z,28.57
2019-02-24T07:14:15.441Z,29.53
2019-02-24T07:16:43.432Z,31.27
2019-02-24T07:19:12.219Z,32.03
2019-02-24T07:21:40.203Z,32.77
2019-02-24T07:24:08.237Z,28.60
2019-02-24T07:26:36.342Z,28.10
2019-02-24T07:29:04.344Z,30.17
2019-02-24T07:31:32.445Z,27.17
2019-02-24T07:34:00.479Z,31.40
2019-02-24T07:36:28.455Z,28.27
2019-02-24T07:38:57.231Z,28.47
2019-02-24T07:41:25.371Z,27.60
2019-02-24T07:43:53.427Z,29.10
2019-02-24T07:46:21.451Z,29.27
2019-02-24T07:48:49.423Z,29.57
2019-02-24T07:51:17.503Z,28.97
2019-02-24T07:53:45.484Z,28.23
2019-02-24T07:56:13.565Z,30.67
2019-02-24T07:58:41.619Z,28.20
2019-02-24T08:01:09.641Z,28.83
2019-02-24T08:03:37.743Z,29.30
2019-02-24T08:06:05.721Z,32.60
2019-02-24T08:08:33.689Z,28.77
2019-02-24T08:11:01.720Z,29.17
2019-02-24T08:13:29.858Z,28.33
2019-02-24T08:15:57.996Z,29.27
2019-02-24T08:18:25.967Z,28.63
2019-02-24T08:20:54.006Z,28.03
2019-02-24T08:23:22.062Z,29.47
2019-02-24T08:25:50.123Z,28.87
2019-02-24T08:28:18.218Z,29.77
2019-02-24T08:30:46.301Z,28.87
2019-02-24T08:33:14.402Z,28.13
2019-02-24T08:35:42.573Z,23.63
2019-02-24T08:38:10.639Z,27.47
2019-02-24T08:40:38.612Z,26.70
2019-02-24T08:43:06.596Z,28.33
2019-02-24T08:45:34.655Z,25.50
2019-02-24T08:48:03.751Z,25.50
2019-02-24T08:50:31.799Z,29.63
2019-02-24T08:52:59.851Z,28.17
2019-02-24T08:55:27.825Z,25.70
2019-02-24T08:57:55.789Z,25.77
2019-02-24T09:00:23.847Z,28.53
2019-02-24T09:02:52.594Z,28.77
2019-02-24T09:05:20.863Z,27.40
2019-02-24T09:07:48.899Z,26.23
2019-02-24T09:10:16.940Z,28.03
2019-02-24T09:12:45.005Z,25.80
2019-02-24T09:15:13.180Z,28.03
2019-02-24T09:17:41.232Z,27.10
2019-02-24T09:20:09.565Z,27.17
2019-02-24T09:22:37.674Z,25.37
2019-02-24T09:25:05.837Z,25.40
2019-02-24T09:27:33.939Z,23.47
2019-02-24T09:30:02.056Z,25.07
2019-02-24T09:32:30.119Z,22.67
2019-02-24T09:34:58.055Z,21.33
2019-02-24T09:37:26.016Z,24.50
2019-02-24T09:39:54.063Z,19.23
2019-02-24T09:42:22.111Z,19.73
2019-02-24T09:44:50.099Z,19.87
2019-02-24T09:47:18.105Z,21.27
2019-02-24T09:49:46.168Z,19.87
2019-02-24T09:52:14.312Z,15.97
2019-02-24T09:54:42.317Z,18.33
2019-02-24T09:57:10.317Z,17.60
2019-02-24T09:59:38.328Z,20.20
2019-02-24T10:02:06.327Z,18.00
2019-02-24T10:04:34.471Z,16.43
2019-02-24T10:07:02.555Z,17.10
2019-02-24T10:09:30.647Z,17.63
2019-02-24T10:11:58.760Z,16.87
2019-02-24T10:14:26.790Z,18.40
2019-02-24T10:16:54.823Z,15.80
2019-02-24T10:19:22.842Z,16.80
2019-02-24T10:21:50.856Z,18.83
2019-02-24T10:24:18.831Z,18.60
2019-02-24T10:26:46.906Z,17.50
2019-02-24T10:29:14.963Z,15.80
2019-02-24T10:31:43.077Z,16.90
2019-02-24T10:34:11.115Z,17.77
2019-02-24T10:36:39.220Z,17.23
2019-02-24T10:39:08.245Z,16.13
2019-02-24T10:41:36.256Z,17.53
2019-02-24T10:44:04.384Z,15.87
2019-02-24T10:46:32.434Z,15.90
2019-02-24T10:49:03.371Z,16.23
2019-02-24T10:51:30.202Z,15.73
2019-02-24T10:53:58.252Z,17.10
2019-02-24T10:56:26.516Z,16.80
2019-02-24T10:58:54.515Z,16.10
2019-02-24T11:01:29.375Z,13.77
2019-02-24T11:03:52.172Z,15.93
2019-02-24T11:06:20.173Z,13.97
2019-02-24T11:08:48.348Z,14.33
2019-02-24T11:11:16.335Z,11.93
2019-02-24T11:13:44.384Z,12.60
2019-02-24T11:16:12.380Z,14.93
2019-02-24T11:18:40.392Z,14.70
2019-02-24T11:21:08.648Z,13.23
2019-02-24T11:23:36.644Z,12.50
2019-02-24T11:26:04.845Z,16.23
2019-02-24T11:28:32.913Z,15.37
2019-02-24T11:31:00.953Z,12.30
2019-02-24T11:33:29.000Z,13.53
2019-02-24T11:35:57.026Z,12.90
2019-02-24T11:38:25.107Z,13.27
2019-02-24T11:40:53.138Z,12.37
2019-02-24T11:43:21.198Z,12.77
2019-02-24T11:45:49.237Z,13.30
2019-02-24T11:48:17.375Z,13.10
2019-02-24T11:50:45.476Z,10.90
2019-02-24T11:53:13.483Z,12.50
2019-02-24T11:55:41.560Z,11.17
2019-02-24T11:58:09.676Z,13.53
2019-02-24T12:00:37.735Z,13.70
2019-02-24T12:03:05.776Z,10.80
2019-02-24T12:05:33.829Z,10.97
2019-02-24T12:08:01.841Z,11.47
2019-02-24T12:10:31.768Z,11.10
2019-02-24T12:13:02.584Z,11.27
2019-02-24T12:15:30.664Z,13.53
2019-02-24T12:17:58.660Z,10.90
2019-02-24T12:20:26.900Z,11.57
2019-02-24T12:22:55.016Z,11.57
2019-02-24T12:25:23.077Z,10.13
2019-02-24T12:27:51.252Z,10.10
2019-02-24T12:30:19.284Z,10.50
2019-02-24T12:32:47.319Z,11.10
2019-02-24T12:35:15.320Z,8.67
2019-02-24T12:37:45.752Z,8.70
2019-02-24T12:40:16.422Z,9.30
2019-02-24T12:42:44.497Z,8.47
2019-02-24T12:45:12.568Z,9.10
2019-02-24T12:47:40.636Z,8.40
2019-02-24T12:50:09.167Z,8.57
2019-02-24T12:52:37.159Z,8.27
2019-02-24T12:55:05.503Z,12.87
2019-02-24T12:57:33.467Z,9.27
2019-02-24T13:00:01.553Z,7.77
2019-02-24T13:02:30.117Z,8.47
2019-02-24T13:04:58.216Z,9.37
2019-02-24T13:07:26.281Z,8.10
2019-02-24T13:09:54.372Z,9.57
2019-02-24T13:12:22.359Z,8.43
2019-02-24T13:14:50.389Z,7.30
2019-02-24T13:17:19.103Z,10.37
2019-02-24T13:19:47.200Z,9.73
2019-02-24T13:22:17.755Z,6.60
2019-02-24T13:24:45.736Z,6.70
2019-02-24T13:27:13.840Z,7.73
2019-02-24T13:29:41.850Z,7.73
2019-02-24T13:32:14.885Z,7.17
2019-02-24T13:34:40.064Z,7.77
2019-02-24T13:37:08.021Z,7.20
2019-02-24T13:39:36.107Z,8.93
2019-02-24T13:42:04.163Z,6.20
2019-02-24T13:44:32.171Z,7.53
2019-02-24T13:47:00.279Z,6.77
2019-02-24T13:49:28.248Z,7.33
2019-02-24T13:51:56.275Z,6.73
2019-02-24T13:54:24.195Z,10.07
2019-02-24T13:56:52.214Z,6.03
2019-02-24T13:59:20.267Z,7.47
2019-02-24T14:01:48.311Z,7.93
2019-02-24T14:04:16.423Z,7.17
2019-02-24T14:06:45.916Z,6.03
2019-02-24T14:09:13.985Z,6.70
2019-02-24T14:11:42.428Z,5.70
2019-02-24T14:14:10.469Z,7.23
2019-02-24T14:16:38.471Z,5.60
2019-02-24T14:19:06.542Z,6.77
2019-02-24T14:21:34.587Z,5.83
2019-02-24T14:24:02.832Z,6.60
2019-02-24T14:26:30.916Z,5.33
2019-02-24T14:28:58.897Z,5.97
2019-02-24T14:31:27.004Z,6.10
2019-02-24T14:33:55.064Z,5.37
2019-02-24T14:36:23.120Z,4.60
2019-02-24T14:38:52.881Z,5.67
2019-02-24T14:41:22.348Z,4.20
2019-02-24T14:43:50.380Z,5.97
2019-02-24T14:46:18.477Z,5.77
2019-02-24T14:48:46.522Z,6.83
2019-02-24T14:51:15.614Z,7.37
2019-02-24T14:53:43.671Z,6.80
2019-02-24T14:56:11.615Z,6.83
2019-02-24T14:58:39.700Z,6.00
2019-02-24T15:01:07.667Z,5.00
2019-02-24T15:03:35.750Z,6.70
2019-02-24T15:06:03.707Z,4.57
2019-02-24T15:08:31.851Z,5.17
2019-02-24T15:10:59.988Z,5.40
2019-02-24T15:13:27.955Z,5.47
2019-02-24T15:15:55.898Z,5.43
2019-02-24T15:18:23.933Z,7.60
2019-02-24T15:20:51.999Z,4.37
2019-02-24T15:23:20.052Z,5.33
2019-02-24T15:25:48.043Z,4.27
2019-02-24T15:28:16.015Z,4.67
2019-02-24T15:30:43.939Z,4.13
2019-02-24T15:33:12.027Z,5.33
2019-02-24T15:35:40.130Z,4.70
2019-02-24T15:38:08.144Z,3.90
2019-02-24T15:40:36.135Z,4.70
2019-02-24T15:43:04.320Z,5.33
2019-02-24T15:45:32.314Z,4.17
2019-02-24T15:48:01.411Z,4.23
2019-02-24T15:50:29.388Z,5.87
2019-02-24T15:52:57.582Z,4.67
2019-02-24T15:55:25.616Z,4.73
2019-02-24T15:57:53.579Z,5.20
2019-02-24T16:00:25.177Z,4.43
2019-02-24T16:03:00.992Z,4.67
2019-02-24T16:05:22.966Z,4.77
2019-02-24T16:07:50.991Z,4.37
2019-02-24T16:10:19.053Z,4.80
2019-02-24T16:12:47.120Z,4.80
2019-02-24T16:15:15.193Z,5.27
2019-02-24T16:17:43.289Z,5.13
2019-02-24T16:20:12.874Z,4.00
2019-02-24T16:22:40.943Z,4.30
2019-02-24T16:25:09.240Z,5.53
2019-02-24T16:27:37.228Z,7.20
2019-02-24T16:30:05.402Z,3.43
2019-02-24T16:32:36.040Z,3.33
2019-02-24T16:35:04.183Z,3.53
2019-02-24T16:37:32.139Z,3.57
2019-02-24T16:40:00.290Z,3.77
2019-02-24T16:42:28.557Z,4.33
2019-02-24T16:44:56.584Z,7.00
2019-02-24T16:47:24.675Z,4.37
2019-02-24T16:49:52.625Z,4.53
2019-02-24T16:52:20.780Z,3.33
2019-02-24T16:54:52.739Z,4.40
2019-02-24T16:57:18.566Z,3.23
2019-02-24T16:59:46.558Z,4.80
2019-02-24T17:02:22.597Z,3.50
2019-02-24T17:04:44.299Z,3.00
2019-02-24T17:07:15.476Z,3.13
2019-02-24T17:09:43.466Z,4.77
2019-02-24T17:12:11.393Z,4.07
2019-02-24T17:14:39.377Z,4.00
2019-02-24T17:17:07.408Z,6.40
2019-02-24T17:19:35.605Z,4.93
2019-02-24T17:22:03.604Z,4.53
2019-02-24T17:24:31.921Z,3.63
2019-02-24T17:27:00.021Z,3.90
2019-02-24T17:29:28.122Z,4.13
2019-02-24T17:31:56.236Z,4.97
2019-02-24T17:34:24.246Z,3.93
2019-02-24T17:36:52.284Z,3.23
2019-02-24T17:39:20.325Z,5.63
2019-02-24T17:41:48.424Z,5.97
2019-02-24T17:44:16.404Z,4.90
2019-02-24T17:46:44.456Z,3.20
2019-02-24T17:49:12.528Z,4.17
2019-02-24T17:51:40.618Z,2.57
2019-02-24T17:54:08.762Z,4.20
2019-02-24T17:56:36.799Z,3.23
2019-02-24T17:59:04.814Z,2.70
2019-02-24T18:01:32.892Z,3.30
2019-02-24T18:04:00.889Z,3.37
2019-02-24T18:06:28.868Z,3.40
2019-02-24T18:08:56.836Z,3.33
2019-02-24T18:11:24.882Z,3.00
2019-02-24T18:13:53.044Z,2.67
2019-02-24T18:16:22.408Z,3.20
2019-02-24T18:18:50.439Z,3.60
2019-02-24T18:21:18.564Z,3.07
2019-02-24T18:23:46.493Z,2.57
2019-02-24T18:26:14.622Z,2.80
2019-02-24T18:28:42.666Z,4.13
2019-02-24T18:31:10.729Z,3.70
2019-02-24T18:33:48.160Z,2.63
2019-02-24T18:36:11.285Z,2.63
2019-02-24T18:38:39.346Z,2.23
2019-02-24T18:41:08.049Z,3.13
2019-02-24T18:43:36.976Z,3.90
2019-02-24T18:46:04.923Z,3.93
2019-02-24T18:48:33.002Z,2.50
2019-02-24T18:51:01.043Z,2.30
2019-02-24T18:53:29.015Z,2.67
2019-02-24T18:55:57.009Z,2.77
2019-02-24T18:58:24.984Z,4.20
2019-02-24T19:00:53.200Z,2.27
2019-02-24T19:06:38.934Z,3.17
2019-02-24T19:09:00.600Z,2.57
2019-02-24T19:11:28.617Z,2.57
2019-02-24T19:13:56.657Z,2.40
2019-02-24T19:16:24.691Z,2.43
2019-02-24T19:18:52.795Z,3.80
2019-02-24T19:21:20.864Z,2.07
2019-02-24T19:23:48.941Z,1.73
2019-02-24T19:26:16.902Z,2.30
2019-02-24T19:28:44.983Z,4.37
2019-02-24T19:31:12.939Z,2.17
2019-02-24T19:33:40.994Z,4.33
2019-02-24T19:36:09.090Z,1.90
2019-02-24T19:38:37.021Z,3.17
2019-02-24T19:41:04.999Z,1.67
2019-02-24T19:43:33.098Z,2.43
2019-02-24T19:46:01.115Z,3.40
2019-02-24T19:48:29.096Z,3.80
2019-02-24T19:50:57.106Z,2.10
2019-02-24T19:53:25.125Z,3.27
2019-02-24T19:55:53.192Z,4.90
2019-02-24T19:58:21.296Z,2.70
2019-02-24T20:00:49.366Z,1.87
2019-02-24T20:03:17.404Z,3.60
2019-02-24T20:05:45.453Z,2.60
2019-02-24T20:08:13.475Z,3.57
2019-02-24T20:10:41.570Z,1.90
2019-02-24T20:13:09.618Z,1.70
2019-02-24T20:15:37.649Z,1.70
2019-02-24T20:18:05.689Z,1.93
2019-02-24T20:20:33.736Z,3.10
2019-02-24T20:23:02.496Z,2.73
2019-02-24T20:25:30.586Z,2.03
2019-02-24T20:27:59.504Z,1.77
2019-02-24T20:30:27.627Z,3.97
2019-02-24T20:32:56.825Z,2.17
2019-02-24T20:35:24.825Z,1.63
2019-02-24T20:37:52.854Z,2.17
2019-02-24T20:40:20.893Z,2.17
2019-02-24T20:42:48.891Z,3.33
2019-02-24T20:45:17.586Z,1.73
2019-02-24T20:47:45.605Z,1.90
2019-02-24T20:50:14.668Z,1.97
2019-02-24T20:52:42.852Z,1.70
2019-02-24T20:55:10.957Z,1.80
2019-02-24T20:57:39.281Z,1.73
2019-02-24T21:00:10.078Z,2.20
2019-02-24T21:02:38.944Z,2.17
2019-02-24T21:05:07.048Z,1.93
2019-02-24T21:07:35.002Z,2.43
2019-02-24T21:10:03.037Z,2.07
2019-02-24T21:12:31.048Z,2.73
2019-02-24T21:14:59.009Z,2.17
2019-02-24T21:17:27.112Z,2.20
2019-02-24T21:19:56.203Z,2.63
2019-02-24T21:22:24.692Z,2.27
2019-02-24T21:24:52.736Z,2.63
2019-02-24T21:27:20.914Z,3.33
2019-02-24T21:29:48.881Z,2.40
2019-02-24T21:32:16.944Z,4.03
2019-02-24T21:34:44.964Z,3.33
2019-02-24T21:37:13.016Z,3.10
2019-02-24T21:39:41.003Z,2.43
2019-02-24T21:42:09.064Z,2.40
2019-02-24T21:44:36.987Z,3.60
2019-02-24T21:47:05.088Z,3.43
2019-02-24T21:49:33.204Z,3.23
2019-02-24T21:52:01.307Z,3.97
2019-02-24T21:54:29.302Z,3.50
2019-02-24T21:56:57.509Z,3.43
2019-02-24T21:59:25.524Z,4.60
2019-02-24T22:01:53.528Z,5.10
2019-02-24T22:04:21.627Z,7.70
2019-02-24T22:06:49.588Z,5.23
2019-02-24T22:09:17.623Z,7.83
2019-02-24T22:11:45.676Z,5.80
2019-02-24T22:14:13.794Z,7.77
2019-02-24T22:16:41.746Z,6.23
2019-02-24T22:19:09.767Z,6.10
2019-02-24T22:21:37.741Z,6.23
2019-02-24T22:24:05.757Z,5.17
2019-02-24T22:26:33.877Z,6.13
2019-02-24T22:29:02.001Z,6.43
2019-02-24T22:31:30.096Z,5.40
2019-02-24T22:33:58.068Z,6.13
2019-02-24T22:36:26.102Z,5.93
2019-02-24T22:38:54.108Z,6.03
2019-02-24T22:41:22.069Z,6.47
2019-02-24T22:43:50.023Z,5.77
2019-02-24T22:46:18.065Z,5.20
2019-02-24T22:48:46.004Z,8.43
2019-02-24T22:51:14.016Z,6.07
2019-02-24T22:53:42.053Z,6.63
2019-02-24T22:56:10.077Z,6.87
2019-02-24T22:58:38.168Z,6.23
2019-02-24T23:01:14.975Z,4.73
2019-02-24T23:03:44.188Z,5.87
2019-02-24T23:06:12.148Z,3.67
2019-02-24T23:08:40.156Z,4.17
2019-02-24T23:11:08.167Z,4.57
2019-02-24T23:13:36.090Z,3.13
2019-02-24T23:16:04.124Z,3.43
2019-02-24T23:18:34.724Z,2.63
2019-02-24T23:21:02.751Z,3.30
2019-02-24T23:23:30.800Z,3.83
2019-02-24T23:25:58.828Z,2.63
2019-02-24T23:28:26.921Z,1.83
2019-02-24T23:30:54.893Z,2.00
2019-02-24T23:33:22.916Z,1.80
2019-02-24T23:35:50.960Z,1.80
2019-02-24T23:38:18.910Z,3.27
2019-02-24T23:40:46.953Z,2.30
2019-02-24T23:43:14.879Z,3.37
2019-02-24T23:45:42.849Z,2.17
2019-02-24T23:48:10.808Z,3.80
2019-02-24T23:50:38.927Z,1.70
2019-02-24T23:53:07.852Z,2.50
2019-02-24T23:55:35.840Z,4.20
2019-02-24T23:58:03.900Z,2.37
